Terminal Aerodrome Forecast
Issued by NWS

Home | Current Version | Previous Version | Text Only | Print | Product List | Glossary On
Versions: 1 2 3 4 5 6 7 8 9 10 11 12 13 14
281
FTUS42 KTAE 270526 CCA
TAFECP
TAF COR
KECP 270526Z 2706/2806 24003KT P6SM SCT040 BKN250
     FM271900 21008KT P6SM SCT040
     FM280000 30003KT P6SM BKN250
      AMD NOT SKED=

USA.gov is the U.S. government's official web portal to all federal, state and local government web resources and services.